Virtual LH

Virtual LH. There's no better way to fly
Since 2013.



AIRPORT MAP

METAR AND TAF INFORMATION

METAR FOR EGPF
ADDS - METARS form results

(1059 UTC 20 June 2019)
Data provider http://aviationweather.gov/metar/data/
 
METAR text: EGPF 201050Z AUTO 23016KT 9999 -RA BKN021/// BKN036/// //////CB 14/09 Q1007
Conditions at: EGPF (GLASGOW AIRPORT , GB) observed 1050 UTC 20 June 2019
Temperature: 14.0°C (57°F)
Dewpoint: 9.0°C (48°F) [RH = 72%]
Pressure (altimeter): 29.73 inches Hg (1007.0 mb)
Winds: from the SW (230 degrees) at 18 MPH (16 knots; 8.2 m/s)
Visibility: 6 or more miles (10+ km)
Ceiling: 2100 feet AGL
Clouds: broken clouds at 2100 feet AGL
broken clouds at 3600 feet AGL
Weather: -RA  (light rain)

METAR text: EGPF 201020Z AUTO 23014KT 9999 -RA SCT019/// SCT030/// BKN039/// //////CB 13/10 Q1007
Conditions at: EGPF (GLASGOW AIRPORT , GB) observed 1020 UTC 20 June 2019
Temperature: 13.0°C (55°F)
Dewpoint: 10.0°C (50°F) [RH = 82%]
Pressure (altimeter): 29.73 inches Hg (1007.0 mb)
Winds: from the SW (230 degrees) at 16 MPH (14 knots; 7.2 m/s)
Visibility: 6 or more miles (10+ km)
Ceiling: 3900 feet AGL
Clouds: scattered clouds at 1900 feet AGL
scattered clouds at 3000 feet AGL
broken clouds at 3900 feet AGL
Weather: -RA  (light rain)

Forecast for: EGPF (GLASGOW AIRPORT , GB)
Text: TAF EGPF 200504Z 2006/2106 24009KT 9999 SCT020
Forecast period: 0600 UTC 20 June 2019 to 0600 UTC 21 June 2019
Forecast type: FROM: standard forecast or significant change
Winds: from the WSW (240 degrees) at 10 MPH (9 knots; 4.6 m/s)
Visibility: 6 or more miles 10+ km)
Ceiling: at least 12,000 feet AGL
Clouds: scattered clouds at 2000 feet AGL
Weather: no significant weather forecast for this period
Text: PROB30
Forecast period: 0800 UTC 20 June 2019 to 0600 UTC 21 June 2019
Forecast type: TEMPORARY: The following changes expected for less than half the time period
Visibility: 4 miles (7 km)
Ceiling: unknown
Clouds: missing
Weather: SHRA  (rain showers)

RUNWAY INFORMATION

Runway 05 Runway length 8720 ft Runway width 151 ft
Runway elevation 26 ft Runway displaced threshold 0 ft Runway heading 46
Runway 23 Runway length 8720 ft Runway width 151 ft
Runway elevation 21 ft Runway displaced threshold 980 ft Runway heading 226
Runway 09 Runway length 3622 ft Runway width 151 ft
Runway elevation 17 ft Runway displaced threshold 203 ft Runway heading 91
Runway 27 Runway length 3622 ft Runway width 151 ft
Runway elevation 23 ft Runway displaced threshold 0 ft Runway heading 271

AIRPORT FREQUENCIES

Type ACC Name SHANWICK O Frequency 120.35 MHZ
Type APP Name APP Frequency 119.1 MHZ
Type ATIS Name ATIS Frequency 129.575 MHZ
Type GND Name GND Frequency 121.7 MHZ
Type TWR Name TWR Frequency 118.8 MHZ

AIRPORT NEAR NAVIGATION AIDS

Type NDB Name Glasgow Frequency 331 KHZ
Type VOR-DME Name Glasgow Frequency 115400 KHZ